Terminal Aerodrome Forecast
Issued by NWS Pocatello, ID

Home | Current Version | Previous Version | Text Only | Print | Product List | Glossary On
Versions: 1 2 3 4 5 6 7 8 9 10 11 12 13 14 15 16 17 18
000
FTUS45 KPIH 190200 AAB
TAFIDA
TAF AMD
KIDA 190200Z 1902/1924 23008KT P6SM VCTS SCT060CB BKN120
     FM190300 VRB06KT P6SM VCSH SCT120 BKN200
     FM190800 22009KT P6SM SCT080
     FM191700 22012G20KT P6SM SCT080=

USA.gov is the U.S. government's official web portal to all federal, state and local government web resources and services.